Time;durP1;ratioP1;P1;durP2;ratioP2;P2;SDS_P1;SDS_P2;PMS_P1;PMS_P2;Temp;Humidity;BMP_temperature;BMP_pressure;BME280_temperature;BME280_humidity;BME280_pressure;Samples;Min_cycle;Max_cycle;Signal;HPM_P1;HPM_P2
2022/01/23 00:00:43;;;;;;;7.30;6.60;;;;;;;1.98;100.00;98428.34;4959654;28;20211;-61
2022/01/23 00:03:18;;;;;;;8.23;7.43;;;;;;;1.90;100.00;98428.00;4956168;28;20699;-61
2022/01/23 00:05:48;;;;;;;8.33;7.50;;;;;;;1.92;100.00;98434.78;4958391;28;20260;-62
2022/01/23 00:08:20;;;;;;;8.43;7.63;;;;;;;2.02;100.00;98435.88;4957743;28;20618;-61
2022/01/23 00:10:51;;;;;;;7.77;7.03;;;;;;;1.97;100.00;98440.56;4956030;28;20237;-62
2022/01/23 00:13:27;;;;;;;7.60;6.90;;;;;;;2.00;100.00;98439.53;4956706;28;20306;-62
2022/01/23 00:18:41;;;;;;;8.10;7.30;;;;;;;1.94;100.00;98426.88;4959023;28;20249;-60
2022/01/23 00:21:09;;;;;;;8.50;7.53;;;;;;;2.05;100.00;98437.47;4958485;28;20202;-61
2022/01/23 00:31:49;;;;;;;7.50;6.80;;;;;;;2.03;100.00;98434.09;4919664;29;20481;-60
2022/01/23 00:34:17;;;;;;;7.13;6.43;;;;;;;1.92;100.00;98429.56;4918582;29;20610;-61
2022/01/23 00:36:45;;;;;;;7.43;6.73;;;;;;;1.88;100.00;98433.31;4918322;29;20306;-61
2022/01/23 00:39:13;;;;;;;7.37;6.67;;;;;;;1.87;100.00;98427.22;4918467;29;20732;-58
2022/01/23 00:41:42;;;;;;;7.63;6.80;;;;;;;1.90;100.00;98423.59;4920934;29;20207;-60
2022/01/23 00:44:10;;;;;;;7.13;6.43;;;;;;;1.84;100.00;98419.59;4920944;29;20326;-62
2022/01/23 00:46:40;;;;;;;6.83;6.17;;;;;;;1.88;100.00;98428.91;4918163;29;20676;-60
2022/01/23 00:51:56;;;;;;;7.17;6.53;;;;;;;1.83;100.00;98436.22;4913247;29;20224;-59
2022/01/23 00:54:25;;;;;;;8.27;7.00;;;;;;;1.78;100.00;98434.84;4917859;29;20334;-59
2022/01/23 00:56:54;;;;;;;8.20;7.10;;;;;;;1.71;100.00;98437.84;4921918;29;20216;-57
2022/01/23 00:59:22;;;;;;;7.93;7.23;;;;;;;1.79;100.00;98436.53;4919237;29;20218;-58
2022/01/23 01:01:50;;;;;;;7.73;6.93;;;;;;;1.74;100.00;98431.56;4918527;29;20219;-57
2022/01/23 01:04:18;;;;;;;7.00;6.33;;;;;;;1.62;100.00;98441.03;4919718;29;20968;-58
2022/01/23 01:06:46;;;;;;;8.37;7.30;;;;;;;1.65;100.00;98451.28;4945379;28;20213;-61
2022/01/23 01:09:15;;;;;;;7.10;6.43;;;;;;;1.66;100.00;98447.72;4955966;28;20210;-56
2022/01/23 01:17:21;;;;;;;7.07;6.47;;;;;;;1.61;100.00;98464.66;4950930;28;20736;-56
2022/01/23 01:31:00;;;;;;;8.27;7.00;;;;;;;1.70;100.00;98453.59;4957900;28;20262;-58
2022/01/23 01:33:39;;;;;;;7.50;6.80;;;;;;;1.45;100.00;98447.28;4960076;28;20252;-60
2022/01/23 01:36:20;;;;;;;6.83;6.23;;;;;;;1.70;100.00;98461.44;4958239;28;20748;-60
2022/01/23 01:38:48;;;;;;;7.80;6.40;;;;;;;1.66;100.00;98457.34;4955255;28;20273;-61
2022/01/23 01:41:18;;;;;;;7.47;6.77;;;;;;;1.55;100.00;98460.63;4957401;28;20206;-61
2022/01/23 01:43:47;;;;;;;6.00;5.50;;;;;;;1.48;100.00;98462.78;4954470;28;20237;-60
2022/01/23 01:46:17;;;;;;;6.47;5.87;;;;;;;1.56;100.00;98463.16;4955411;28;20208;-62
2022/01/23 01:48:45;;;;;;;7.53;6.83;;;;;;;1.68;100.00;98464.16;4955549;28;20282;-56
2022/01/23 01:51:16;;;;;;;8.00;6.70;;;;;;;1.69;100.00;98465.81;4956294;28;20345;-58
2022/01/23 01:53:50;;;;;;;6.93;6.23;;;;;;;1.80;100.00;98461.72;4957275;28;20589;-57
2022/01/23 01:56:18;;;;;;;6.10;5.50;;;;;;;1.68;100.00;98458.91;4952281;28;20289;-61
2022/01/23 01:59:12;;;;;;;7.23;6.53;;;;;;;1.78;100.00;98461.81;4955095;28;20340;-61
2022/01/23 02:09:59;;;;;;;6.33;5.73;;;;;;;1.71;100.00;98456.16;4956548;28;20229;-59
2022/01/23 02:12:58;;;;;;;6.57;5.97;;;;;;;1.53;100.00;98473.81;4955268;28;20642;-61
2022/01/23 02:24:06;;;;;;;6.03;5.53;;;;;;;1.71;100.00;98463.97;4952524;28;20217;-60
2022/01/23 02:51:41;;;;;;;5.60;5.10;;;;;;;1.63;100.00;98455.75;4953208;28;20318;-60
2022/01/23 02:54:29;;;;;;;7.00;6.33;;;;;;;1.66;100.00;98450.34;4955519;28;20208;-58
2022/01/23 02:57:02;;;;;;;6.27;5.73;;;;;;;1.67;100.00;98454.63;4954200;28;20679;-56
2022/01/23 02:59:35;;;;;;;6.27;5.67;;;;;;;1.69;100.00;98459.78;4954536;28;20592;-60
2022/01/23 03:02:10;;;;;;;6.23;5.73;;;;;;;1.68;100.00;98461.53;4956691;28;20293;-58
2022/01/23 03:04:48;;;;;;;6.00;5.50;;;;;;;1.46;100.00;98450.75;4955784;28;20265;-63
2022/01/23 03:07:32;;;;;;;6.40;5.83;;;;;;;1.47;100.00;98460.28;4954445;28;20341;-60
2022/01/23 03:10:04;;;;;;;7.57;6.00;;;;;;;1.44;100.00;98453.44;4958817;28;20213;-61
2022/01/23 03:15:25;;;;;;;6.50;5.57;;;;;;;1.51;100.00;98452.13;4945891;28;20329;-61
2022/01/23 03:29:58;;;;;;;5.60;5.10;;;;;;;1.41;100.00;98454.50;4923827;28;20242;-61
2022/01/23 03:32:34;;;;;;;6.73;6.13;;;;;;;1.43;100.00;98455.25;4939978;28;20680;-60
2022/01/23 03:35:02;;;;;;;5.00;4.53;;;;;;;1.41;100.00;98471.94;4938373;28;21195;-62
2022/01/23 03:37:30;;;;;;;6.67;5.90;;;;;;;1.35;100.00;98480.16;4937365;28;20287;-60
2022/01/23 03:39:58;;;;;;;6.30;5.70;;;;;;;1.50;100.00;98483.59;4938629;28;20711;-62
2022/01/23 03:42:28;;;;;;;6.60;5.70;;;;;;;1.53;100.00;98486.88;4940394;28;20243;-60
2022/01/23 03:45:17;;;;;;;6.00;5.50;;;;;;;1.48;100.00;98480.22;4937755;28;20684;-61
2022/01/23 03:48:01;;;;;;;6.40;5.83;;;;;;;1.58;100.00;98478.72;4939621;28;20242;-58
2022/01/23 03:50:28;;;;;;;5.77;5.27;;;;;;;1.66;100.00;98476.47;4941156;28;20211;-59
2022/01/23 03:52:57;;;;;;;6.33;5.57;;;;;;;1.62;100.00;98485.44;4957013;28;20277;-60
2022/01/23 03:55:26;;;;;;;7.07;5.90;;;;;;;1.54;100.00;98480.72;4962875;28;20931;-58
2022/01/23 03:57:54;;;;;;;6.23;5.73;;;;;;;1.53;100.00;98467.72;4959542;28;20660;-61
2022/01/23 04:00:24;;;;;;;6.60;6.00;;;;;;;1.47;100.00;98468.09;4961046;28;20300;-60
2022/01/23 04:02:52;;;;;;;7.20;6.60;;;;;;;1.52;100.00;98472.13;4960610;28;20246;-59
2022/01/23 04:05:21;;;;;;;7.07;6.37;;;;;;;1.33;100.00;98477.66;4960387;28;20483;-60
2022/01/23 04:07:49;;;;;;;8.53;6.80;;;;;;;1.32;100.00;98462.88;4961807;28;20226;-60
2022/01/23 04:10:19;;;;;;;6.40;5.90;;;;;;;1.34;100.00;98455.81;4959313;28;20261;-60
2022/01/23 04:12:52;;;;;;;7.73;6.43;;;;;;;1.28;100.00;98458.78;4960637;28;20227;-60
2022/01/23 04:15:29;;;;;;;7.70;7.00;;;;;;;1.19;100.00;98470.66;4959821;28;20277;-60
2022/01/23 04:20:45;;;;;;;6.87;6.27;;;;;;;1.18;100.00;98468.09;4960317;28;20215;-61
2022/01/23 04:31:46;;;;;;;6.33;5.73;;;;;;;1.08;100.00;98491.31;4959254;28;20214;-59
2022/01/23 04:34:22;;;;;;;6.30;5.67;;;;;;;1.17;100.00;98497.75;4957116;28;20285;-60
2022/01/23 04:45:23;;;;;;;9.07;6.83;;;;;;;1.33;100.00;98493.31;4957022;28;20902;-58
2022/01/23 05:01:57;;;;;;;7.73;6.93;;;;;;;1.03;100.00;98495.97;4955544;28;20676;-55
2022/01/23 05:04:30;;;;;;;6.63;6.03;;;;;;;1.14;100.00;98504.84;4957687;28;20780;-57
2022/01/23 05:07:02;;;;;;;8.23;6.53;;;;;;;1.07;100.00;98513.13;4954751;28;20225;-58
2022/01/23 05:09:32;;;;;;;6.90;6.30;;;;;;;0.98;100.00;98514.53;4951949;28;20873;-60
2022/01/23 05:12:02;;;;;;;6.50;5.87;;;;;;;1.10;100.00;98518.16;4950387;28;20281;-59
2022/01/23 05:14:32;;;;;;;6.70;6.10;;;;;;;1.23;100.00;98516.53;4953918;28;20235;-55
2022/01/23 05:17:00;;;;;;;6.80;6.20;;;;;;;1.22;100.00;98517.44;4951596;28;20241;-60
2022/01/23 05:19:29;;;;;;;6.57;5.83;;;;;;;1.22;100.00;98514.00;4954906;28;20269;-57
2022/01/23 05:24:51;;;;;;;8.03;6.73;;;;;;;1.15;100.00;98510.94;4947998;28;20215;-56
2022/01/23 05:27:21;;;;;;;7.40;6.70;;;;;;;1.23;100.00;98515.66;4956176;28;20249;-59
2022/01/23 05:29:50;;;;;;;6.57;5.83;;;;;;;1.15;100.00;98522.19;4953475;28;20515;-60
2022/01/23 05:32:20;;;;;;;8.70;6.87;;;;;;;1.06;100.00;98498.41;4955485;28;20905;-56
2022/01/23 05:34:49;;;;;;;7.63;6.90;;;;;;;1.00;100.00;98510.88;4952218;28;20203;-55
2022/01/23 05:37:17;;;;;;;8.10;7.30;;;;;;;1.10;100.00;98508.56;4952196;28;20272;-55
2022/01/23 05:39:46;;;;;;;7.77;7.07;;;;;;;0.99;100.00;98518.81;4957033;28;20735;-56
2022/01/23 05:42:14;;;;;;;7.80;7.10;;;;;;;1.06;100.00;98514.91;4956875;28;20199;-58
2022/01/23 05:44:43;;;;;;;8.47;7.53;;;;;;;1.09;100.00;98517.34;4954676;28;20206;-55
2022/01/23 05:47:13;;;;;;;7.70;6.90;;;;;;;1.11;100.00;98512.88;4954484;28;20226;-57
2022/01/23 05:49:42;;;;;;;9.13;8.20;;;;;;;1.23;100.00;98513.91;4952227;28;20242;-58
2022/01/23 05:52:10;;;;;;;9.23;8.13;;;;;;;1.13;100.00;98504.94;4955678;28;20285;-58
2022/01/23 05:54:38;;;;;;;7.77;7.07;;;;;;;1.16;100.00;98504.78;4955605;28;20235;-59
2022/01/23 05:57:08;;;;;;;9.30;7.53;;;;;;;1.09;100.00;98506.03;4955862;28;20233;-59
2022/01/23 05:59:36;;;;;;;7.60;6.90;;;;;;;1.14;100.00;98509.25;4955894;28;20222;-58
2022/01/23 06:02:05;;;;;;;7.10;6.50;;;;;;;1.13;100.00;98515.38;4953594;28;20239;-57
2022/01/23 06:04:33;;;;;;;7.60;6.63;;;;;;;1.21;100.00;98525.38;4952494;28;20718;-58
2022/01/23 06:07:02;;;;;;;8.17;7.43;;;;;;;1.22;100.00;98508.75;4957110;28;20527;-59
2022/01/23 06:09:30;;;;;;;9.70;8.80;;;;;;;1.39;100.00;98516.44;4951683;28;20284;-59
2022/01/23 06:11:58;;;;;;;8.90;8.00;;;;;;;1.38;100.00;98519.97;4955505;28;20217;-58
2022/01/23 06:14:28;;;;;;;9.43;8.43;;;;;;;1.47;100.00;98518.56;4951229;28;20234;-58
2022/01/23 06:16:56;;;;;;;8.00;7.20;;;;;;;1.30;100.00;98519.59;4953732;28;20241;-61
2022/01/23 06:19:24;;;;;;;9.80;8.60;;;;;;;1.15;100.00;98522.19;4952129;28;20293;-56
2022/01/23 06:21:52;;;;;;;10.47;8.17;;;;;;;0.93;100.00;98512.19;4956049;28;20514;-60
2022/01/23 06:24:26;;;;;;;9.77;8.03;;;;;;;1.05;100.00;98539.34;4955229;28;20273;-60
2022/01/23 06:26:55;;;;;;;7.13;6.47;;;;;;;1.17;100.00;98540.38;4956036;28;20214;-59
2022/01/23 06:29:24;;;;;;;8.40;7.50;;;;;;;1.08;100.00;98543.53;4957167;28;20755;-57
2022/01/23 06:31:55;;;;;;;8.27;7.45;;;;;;;1.06;100.00;98537.56;4950398;28;20629;-62
2022/01/23 06:34:23;;;;;;;8.73;7.83;;;;;;;1.09;100.00;98537.38;4955350;28;20278;-57
2022/01/23 06:36:52;;;;;;;9.17;7.80;;;;;;;1.03;100.00;98548.19;4954460;28;20202;-58
2022/01/23 06:39:21;;;;;;;8.30;7.60;;;;;;;1.06;100.00;98548.84;4958754;28;20234;-58
2022/01/23 06:41:50;;;;;;;8.77;7.97;;;;;;;1.13;100.00;98557.13;4952770;28;20214;-59
2022/01/23 06:44:18;;;;;;;8.20;7.40;;;;;;;1.11;100.00;98559.84;4957620;28;20209;-57
2022/01/23 06:46:46;;;;;;;7.57;6.70;;;;;;;1.14;100.00;98564.91;4955952;28;20237;-56
2022/01/23 06:49:16;;;;;;;7.80;7.00;;;;;;;1.05;100.00;98569.81;4957138;28;20218;-59
2022/01/23 06:51:44;;;;;;;8.50;7.60;;;;;;;0.91;100.00;98571.47;4960198;28;20616;-57
2022/01/23 06:54:12;;;;;;;7.53;6.90;;;;;;;0.99;100.00;98576.25;4960732;28;20818;-58
2022/01/23 06:56:41;;;;;;;8.57;7.13;;;;;;;1.10;100.00;98579.06;4963802;28;20253;-58
2022/01/23 06:59:09;;;;;;;8.57;7.77;;;;;;;1.09;100.00;98586.97;4961396;28;20599;-61
2022/01/23 07:01:37;;;;;;;8.57;7.70;;;;;;;1.01;100.00;98584.81;4963213;28;20209;-59
2022/01/23 07:04:06;;;;;;;9.97;7.27;;;;;;;0.99;100.00;98597.94;4962272;28;20210;-59
2022/01/23 07:06:35;;;;;;;10.37;8.27;;;;;;;1.05;100.00;98607.22;4961512;28;20481;-60
2022/01/23 07:09:08;;;;;;;7.53;6.83;;;;;;;1.13;100.00;98601.53;4955184;28;20213;-61
2022/01/23 07:11:36;;;;;;;8.73;7.77;;;;;;;1.02;100.00;98604.78;4960861;28;20781;-58
2022/01/23 07:14:04;;;;;;;10.73;8.10;;;;;;;1.04;100.00;98605.53;4961242;28;20301;-58
2022/01/23 07:16:33;;;;;;;9.27;8.30;;;;;;;1.10;100.00;98605.16;4957625;28;20680;-59
2022/01/23 07:19:01;;;;;;;8.40;7.60;;;;;;;1.16;100.00;98606.59;4960016;28;20248;-59
2022/01/23 07:21:30;;;;;;;8.93;7.87;;;;;;;1.17;100.00;98612.63;4962147;28;20218;-57
2022/01/23 07:23:59;;;;;;;8.67;7.77;;;;;;;1.24;100.00;98620.03;4961437;28;20289;-61
2022/01/23 07:26:28;;;;;;;8.47;7.63;;;;;;;1.35;100.00;98623.78;4961248;28;20636;-59
2022/01/23 07:28:59;;;;;;;9.57;8.57;;;;;;;1.24;100.00;98625.25;4957638;28;20222;-62
2022/01/23 07:31:56;;;;;;;8.47;7.67;;;;;;;1.43;100.00;98630.25;4959872;28;20754;-55
2022/01/23 07:34:25;;;;;;;8.73;7.33;;;;;;;1.49;100.00;98629.03;4956282;28;20732;-59
2022/01/23 07:36:53;;;;;;;9.50;8.50;;;;;;;1.36;100.00;98621.09;4961725;28;20288;-61
2022/01/23 07:39:26;;;;;;;9.87;8.87;;;;;;;1.57;100.00;98625.97;4959689;28;20612;-61
2022/01/23 07:41:55;;;;;;;8.33;7.53;;;;;;;1.58;100.00;98620.66;4958749;28;20265;-60
2022/01/23 07:44:23;;;;;;;8.67;7.73;;;;;;;1.48;100.00;98618.69;4959265;28;20242;-58
2022/01/23 07:46:52;;;;;;;8.83;7.97;;;;;;;1.64;100.00;98619.44;4956603;28;20692;-57
2022/01/23 07:49:21;;;;;;;10.67;9.37;;;;;;;1.75;100.00;98628.41;4955796;28;20304;-55
2022/01/23 07:51:49;;;;;;;10.10;8.37;;;;;;;1.80;100.00;98623.75;4958502;28;20226;-61
2022/01/23 07:54:17;;;;;;;10.43;9.43;;;;;;;1.78;100.00;98623.00;4955291;28;20806;-57
2022/01/23 07:56:47;;;;;;;10.87;9.77;;;;;;;1.83;100.00;98621.78;4963945;28;20210;-57
2022/01/23 07:59:15;;;;;;;10.23;8.97;;;;;;;2.08;100.00;98619.44;4957182;28;20677;-60
2022/01/23 08:01:44;;;;;;;9.73;8.63;;;;;;;2.14;100.00;98622.50;4956862;28;20333;-59
2022/01/23 08:04:12;;;;;;;10.00;9.00;;;;;;;2.03;100.00;98622.34;4956988;28;20261;-57
2022/01/23 08:06:46;;;;;;;9.37;8.37;;;;;;;2.14;100.00;98625.13;4959950;28;20714;-61
2022/01/23 08:09:15;;;;;;;9.97;9.00;;;;;;;2.13;100.00;98635.69;4960652;28;20266;-59
2022/01/23 08:11:43;;;;;;;8.67;7.80;;;;;;;2.19;100.00;98634.47;4960745;28;20273;-58
2022/01/23 08:14:13;;;;;;;9.57;8.10;;;;;;;2.10;100.00;98630.66;4958031;28;20277;-61
2022/01/23 08:16:42;;;;;;;8.70;7.97;;;;;;;2.24;100.00;98632.41;4958864;28;20762;-60
2022/01/23 08:19:10;;;;;;;9.50;8.37;;;;;;;2.31;100.00;98626.69;4958432;28;20238;-62
2022/01/23 08:21:38;;;;;;;9.00;8.07;;;;;;;2.45;100.00;98622.38;4959475;28;20211;-62
2022/01/23 08:24:07;;;;;;;9.47;8.20;;;;;;;2.26;100.00;98623.53;4958289;28;20253;-59
2022/01/23 08:26:35;;;;;;;9.07;8.23;;;;;;;2.35;100.00;98613.44;4957592;28;20680;-62
2022/01/23 08:29:04;;;;;;;9.03;8.13;;;;;;;2.32;100.00;98624.94;4954083;28;20250;-62
2022/01/23 08:31:33;;;;;;;11.17;9.90;;;;;;;2.37;100.00;98620.25;4958805;28;20210;-59
2022/01/23 08:34:01;;;;;;;9.43;8.60;;;;;;;2.44;100.00;98625.91;4956004;28;20228;-60
2022/01/23 08:36:33;;;;;;;9.87;8.93;;;;;;;2.50;100.00;98629.94;4959637;28;20231;-63
2022/01/23 08:39:01;;;;;;;10.17;8.70;;;;;;;2.60;100.00;98631.88;4956413;28;20250;-64
2022/01/23 08:44:15;;;;;;;9.30;8.33;;;;;;;2.77;100.00;98639.59;4957387;28;20277;-62
2022/01/23 08:46:45;;;;;;;9.33;8.03;;;;;;;2.77;100.00;98643.03;4957906;28;20214;-58
2022/01/23 08:49:13;;;;;;;9.03;8.20;;;;;;;2.74;100.00;98649.31;4957348;28;20581;-60
2022/01/23 08:51:41;;;;;;;8.33;7.57;;;;;;;2.74;100.00;98644.09;4957869;28;20321;-58
2022/01/23 08:54:10;;;;;;;8.43;7.63;;;;;;;2.66;100.00;98651.59;4957880;28;20214;-62
2022/01/23 08:56:38;;;;;;;8.13;7.43;;;;;;;2.96;100.00;98653.16;4958059;28;20214;-61
2022/01/23 08:59:06;;;;;;;9.10;8.20;;;;;;;2.77;100.00;98648.25;4964087;28;20246;-57
2022/01/23 09:01:36;;;;;;;7.27;6.53;;;;;;;3.06;100.00;98652.59;4957653;28;20238;-60
2022/01/23 09:04:07;;;;;;;8.90;7.33;;;;;;;3.15;100.00;98639.69;4958989;28;20273;-61
2022/01/23 09:06:35;;;;;;;7.57;6.77;;;;;;;3.04;100.00;98643.03;4957506;28;20238;-63
2022/01/23 09:09:05;;;;;;;8.27;7.47;;;;;;;2.88;100.00;98639.72;4958801;28;20269;-62
2022/01/23 09:11:41;;;;;;;8.10;7.40;;;;;;;2.97;100.00;98641.75;4950135;28;20214;-60
2022/01/23 09:14:10;;;;;;;7.70;6.87;;;;;;;3.00;100.00;98643.34;4957479;28;20214;-61
2022/01/23 09:16:40;;;;;;;9.03;8.13;;;;;;;3.09;100.00;98652.38;4953948;28;20547;-59
2022/01/23 09:19:11;;;;;;;7.20;6.50;;;;;;;3.08;100.00;98645.47;4956760;28;20234;-62
2022/01/23 09:21:40;;;;;;;7.13;6.37;;;;;;;3.10;100.00;98639.16;4953078;28;20214;-60
2022/01/23 09:24:08;;;;;;;8.00;7.27;;;;;;;3.37;100.00;98638.28;4958793;28;20213;-58
2022/01/23 09:26:37;;;;;;;6.17;5.57;;;;;;;3.54;100.00;98638.94;4952812;28;20487;-60
2022/01/23 09:29:13;;;;;;;5.93;5.33;;;;;;;3.62;100.00;98637.47;4953287;28;20289;-60
2022/01/23 09:31:52;;;;;;;5.97;5.47;;;;;;;3.56;100.00;98647.53;4958195;28;20213;-61
2022/01/23 09:34:24;;;;;;;5.70;5.20;;;;;;;3.39;100.00;98644.25;4958295;28;20708;-57
2022/01/23 09:36:53;;;;;;;6.03;5.47;;;;;;;3.54;100.00;98638.94;4951066;28;20257;-59
2022/01/23 09:39:22;;;;;;;5.60;5.10;;;;;;;3.34;100.00;98641.13;4957923;28;20611;-61
2022/01/23 09:42:02;;;;;;;5.90;4.87;;;;;;;3.50;100.00;98653.19;4953431;28;20262;-59
2022/01/23 09:44:32;;;;;;;5.80;5.30;;;;;;;3.46;100.00;98657.81;4956761;28;20210;-61
2022/01/23 09:47:01;;;;;;;6.40;5.80;;;;;;;3.73;100.00;98662.13;4956469;28;20313;-60
2022/01/23 09:49:32;;;;;;;5.57;5.07;;;;;;;3.79;100.00;98661.72;4951907;28;20636;-62
2022/01/23 09:52:01;;;;;;;5.63;5.13;;;;;;;3.86;100.00;98662.97;4957987;28;20206;-60
2022/01/23 09:54:31;;;;;;;6.90;6.10;;;;;;;3.62;100.00;98655.81;4952516;28;20677;-55
2022/01/23 09:57:02;;;;;;;4.70;4.33;;;;;;;3.44;100.00;98664.94;4952961;28;20226;-59
2022/01/23 09:59:30;;;;;;;4.67;4.27;;;;;;;3.37;100.00;98659.25;4951771;28;20722;-58
2022/01/23 10:02:01;;;;;;;5.40;4.90;;;;;;;3.29;100.00;98657.13;4955323;28;20285;-59
2022/01/23 10:04:31;;;;;;;5.27;4.77;;;;;;;3.38;100.00;98654.84;4958159;28;20691;-57
2022/01/23 10:07:00;;;;;;;5.20;4.80;;;;;;;3.40;100.00;98645.94;4955065;28;20202;-58
2022/01/23 10:09:31;;;;;;;5.40;4.90;;;;;;;3.47;100.00;98652.44;4958655;28;20316;-62
2022/01/23 10:12:00;;;;;;;5.67;5.17;;;;;;;3.52;100.00;98649.53;4952101;28;20330;-60
2022/01/23 10:14:29;;;;;;;5.03;4.63;;;;;;;3.37;100.00;98659.25;4958549;28;20688;-61
2022/01/23 10:16:57;;;;;;;5.20;4.80;;;;;;;3.24;100.00;98650.53;4959964;28;20226;-60
2022/01/23 10:19:26;;;;;;;6.30;5.30;;;;;;;3.28;100.00;98657.25;4965570;28;20308;-59
2022/01/23 10:21:55;;;;;;;5.47;4.97;;;;;;;3.40;100.00;98656.44;4957811;28;20215;-57
2022/01/23 10:24:24;;;;;;;5.83;5.20;;;;;;;3.55;100.00;98659.81;4953457;28;21185;-59
2022/01/23 10:26:57;;;;;;;6.33;5.23;;;;;;;3.65;100.00;98661.81;4954699;28;20198;-62
2022/01/23 10:29:27;;;;;;;5.83;5.07;;;;;;;3.58;100.00;98656.13;4952695;28;20245;-56
2022/01/23 10:32:19;;;;;;;5.10;4.70;;;;;;;3.67;100.00;98652.06;4953800;28;20321;-60
2022/01/23 10:34:54;;;;;;;5.30;4.80;;;;;;;3.96;100.00;98649.22;4951171;28;20210;-56
2022/01/23 10:37:34;;;;;;;4.90;4.50;;;;;;;4.26;100.00;98654.13;4955007;28;20731;-58
2022/01/23 10:40:11;;;;;;;4.30;3.90;;;;;;;4.12;100.00;98652.44;4939817;28;20206;-60
2022/01/23 10:42:55;;;;;;;4.57;4.17;;;;;;;4.23;100.00;98659.59;4937142;28;20215;-57
2022/01/23 10:48:39;;;;;;;4.60;4.20;;;;;;;4.29;100.00;98648.66;4934268;28;20384;-60
2022/01/23 10:51:23;;;;;;;5.13;4.63;;;;;;;4.48;100.00;98645.56;4935646;28;20215;-57
2022/01/23 10:54:13;;;;;;;4.13;3.83;;;;;;;4.52;100.00;98648.81;4933500;28;20216;-62
2022/01/23 10:57:00;;;;;;;4.03;3.63;;;;;;;4.72;100.00;98630.78;4934767;28;20231;-61
2022/01/23 10:59:41;;;;;;;4.27;3.97;;;;;;;4.69;100.00;98636.25;4933889;28;20756;-61
2022/01/23 11:02:10;;;;;;;5.27;4.77;;;;;;;4.45;100.00;98637.91;4931454;28;20689;-57
2022/01/23 11:04:52;;;;;;;4.60;4.20;;;;;;;4.72;100.00;98643.91;4935969;28;20222;-61
2022/01/23 11:07:21;;;;;;;4.80;4.40;;;;;;;4.69;100.00;98644.13;4935667;28;20628;-60
2022/01/23 11:10:01;;;;;;;4.43;4.03;;;;;;;4.67;100.00;98646.03;4936315;28;20233;-61
2022/01/23 11:18:15;;;;;;;5.27;4.80;;;;;;;4.67;100.00;98639.00;4919215;29;20247;-59
2022/01/23 11:20:46;;;;;;;4.27;3.57;;;;;;;4.69;100.00;98650.25;4919135;29;20215;-61
2022/01/23 11:23:16;;;;;;;4.50;4.20;;;;;;;5.02;100.00;98646.13;4919966;29;21260;-60
2022/01/23 11:25:48;;;;;;;3.60;3.40;;;;;;;5.06;100.00;98651.97;4916773;29;20216;-61
2022/01/23 11:28:21;;;;;;;4.03;3.73;;;;;;;4.68;100.00;98645.09;4915483;29;20669;-56
2022/01/23 11:30:49;;;;;;;3.10;2.90;;;;;;;4.13;100.00;98648.88;4917483;29;20307;-60
2022/01/23 11:33:18;;;;;;;3.77;3.53;;;;;;;4.08;100.00;98645.75;4918631;29;20219;-62
2022/01/23 11:35:47;;;;;;;3.57;3.37;;;;;;;3.82;100.00;98645.78;4921656;29;20208;-58
2022/01/23 11:38:21;;;;;;;3.00;2.80;;;;;;;3.71;100.00;98643.03;4928706;28;20293;-61
2022/01/23 11:55:04;;;;;;;3.00;2.80;;;;;;;3.69;100.00;98642.28;4957681;28;20202;-61
2022/01/23 11:57:40;;;;;;;3.67;3.47;;;;;;;4.04;100.00;98634.66;4959007;28;20306;-60
2022/01/23 12:00:11;;;;;;;3.50;3.30;;;;;;;4.18;100.00;98644.19;4952584;28;20276;-62
2022/01/23 12:02:41;;;;;;;3.23;3.03;;;;;;;4.35;100.00;98642.16;4960148;28;20213;-59
2022/01/23 12:05:22;;;;;;;3.10;2.90;;;;;;;4.42;100.00;98643.38;4957549;28;20304;-58
2022/01/23 12:08:28;;;;;;;2.70;2.50;;;;;;;4.63;100.00;98641.00;4956615;28;20270;-59
2022/01/23 12:17:38;;;;;;;2.10;2.00;;;;;;;4.42;100.00;98642.56;4958781;28;20238;-62
2022/01/23 12:20:07;;;;;;;2.67;2.57;;;;;;;4.16;100.00;98639.97;4958989;28;20644;-60
2022/01/23 12:22:43;;;;;;;3.10;2.90;;;;;;;4.06;100.00;98637.16;4955890;28;20688;-60
2022/01/23 12:25:30;;;;;;;2.77;2.57;;;;;;;4.00;100.00;98632.34;4957793;28;20261;-61
2022/01/23 12:28:28;;;;;;;2.67;2.57;;;;;;;3.87;100.00;98632.34;4955146;28;20229;-60
2022/01/23 12:31:00;;;;;;;2.43;2.33;;;;;;;3.96;100.00;98631.69;4958788;28;20206;-60
2022/01/23 12:33:46;;;;;;;3.23;3.03;;;;;;;4.04;100.00;98618.06;4958744;28;20238;-58
2022/01/23 12:36:33;;;;;;;3.27;3.07;;;;;;;4.10;100.00;98622.03;4957833;28;20253;-61
2022/01/23 12:39:18;;;;;;;3.20;3.00;;;;;;;4.15;100.00;98625.19;4953314;28;20513;-56
2022/01/23 12:41:59;;;;;;;2.70;2.60;;;;;;;4.40;100.00;98619.03;4957884;28;20206;-59
2022/01/23 12:44:35;;;;;;;2.63;2.43;;;;;;;4.16;100.00;98624.22;4954298;28;20865;-59
2022/01/23 12:47:06;;;;;;;3.07;2.87;;;;;;;3.97;100.00;98620.25;4953542;28;20675;-59
2022/01/23 12:49:36;;;;;;;3.70;2.83;;;;;;;3.81;100.00;98617.88;4955328;28;20214;-59
2022/01/23 12:52:14;;;;;;;2.73;2.53;;;;;;;4.10;100.00;98616.78;4953914;28;20645;-57
2022/01/23 12:54:57;;;;;;;2.60;2.50;;;;;;;4.19;100.00;98616.16;4955184;28;20219;-61
2022/01/23 12:57:33;;;;;;;2.70;2.50;;;;;;;4.45;100.00;98605.59;4958076;28;20238;-57
2022/01/23 13:00:05;;;;;;;2.40;2.30;;;;;;;4.68;100.00;98610.94;4952583;28;20209;-55
2022/01/23 13:02:41;;;;;;;3.50;3.20;;;;;;;4.69;100.00;98610.84;4955454;28;20217;-59
2022/01/23 13:05:11;;;;;;;2.63;2.43;;;;;;;4.80;100.00;98610.09;4957742;28;20206;-59
2022/01/23 13:07:46;;;;;;;3.27;2.87;;;;;;;4.74;100.00;98603.47;4958369;28;20301;-59
2022/01/23 13:10:29;;;;;;;2.70;2.57;;;;;;;4.47;100.00;98601.91;4960740;28;20241;-60
2022/01/23 13:13:12;;;;;;;3.20;3.00;;;;;;;4.44;100.00;98601.28;4954909;28;20706;-59
2022/01/23 13:16:03;;;;;;;2.67;2.57;;;;;;;4.14;100.00;98599.91;4955402;28;20766;-58
2022/01/23 13:18:46;;;;;;;3.27;2.67;;;;;;;3.96;100.00;98594.16;4953551;28;20236;-61
2022/01/23 13:27:17;;;;;;;3.40;3.20;;;;;;;3.50;100.00;98585.91;4957537;28;21034;-59
2022/01/23 13:30:00;;;;;;;3.30;3.00;;;;;;;3.35;100.00;98593.00;4956858;28;20261;-62
2022/01/23 13:32:37;;;;;;;3.07;2.90;;;;;;;3.27;100.00;98587.47;4951569;28;20211;-61
2022/01/23 13:35:12;;;;;;;3.03;2.83;;;;;;;3.09;100.00;98584.28;4953080;28;20305;-61
2022/01/23 13:37:42;;;;;;;2.77;2.67;;;;;;;3.17;100.00;98580.19;4959121;28;20253;-61
2022/01/23 13:40:13;;;;;;;3.43;3.23;;;;;;;3.33;100.00;98590.47;4955504;28;20500;-61
2022/01/23 13:47:49;;;;;;;3.70;3.40;;;;;;;3.42;100.00;98590.84;4954403;28;20211;-60
2022/01/23 13:51:54;;;;;;;4.53;4.13;;;;;;;3.50;100.00;98604.25;4953759;28;20210;-59
2022/01/23 14:00:05;;;;;;;2.63;2.43;;;;;;;3.46;100.00;98603.59;4956517;28;20211;-56
2022/01/23 14:02:35;;;;;;;2.47;2.37;;;;;;;3.37;100.00;98587.66;4951694;28;20210;-58
2022/01/23 14:05:11;;;;;;;2.27;2.17;;;;;;;3.48;100.00;98596.47;4954886;28;20262;-61
2022/01/23 14:07:42;;;;;;;3.00;2.80;;;;;;;3.52;100.00;98598.88;4958393;28;20229;-63
2022/01/23 14:10:14;;;;;;;3.00;2.80;;;;;;;3.48;100.00;98614.81;4957606;28;20315;-62
2022/01/23 14:12:43;;;;;;;3.70;3.43;;;;;;;3.53;100.00;98606.66;4954807;28;20755;-61
2022/01/23 14:15:20;;;;;;;3.20;3.00;;;;;;;3.54;100.00;98602.22;4956560;28;20587;-56
2022/01/23 14:18:00;;;;;;;3.20;3.00;;;;;;;3.45;100.00;98615.03;4955070;28;20266;-61
2022/01/23 14:20:30;;;;;;;5.50;4.97;;;;;;;3.46;100.00;98608.03;4958195;28;20677;-62
2022/01/23 14:23:09;;;;;;;4.50;4.10;;;;;;;3.43;100.00;98608.22;4955157;28;20316;-57
2022/01/23 14:25:44;;;;;;;3.80;3.50;;;;;;;3.37;100.00;98606.84;4955866;28;20211;-58
2022/01/23 14:28:14;;;;;;;4.73;4.33;;;;;;;3.43;100.00;98603.81;4956451;28;20257;-59
2022/01/23 14:30:45;;;;;;;2.80;2.63;;;;;;;3.31;100.00;98599.41;4955116;28;20639;-58
2022/01/23 14:33:18;;;;;;;5.03;4.00;;;;;;;3.35;100.00;98593.00;4953431;28;20711;-55
2022/01/23 14:35:46;;;;;;;4.20;3.90;;;;;;;3.22;100.00;98584.28;4957044;28;20790;-58
2022/01/23 14:38:18;;;;;;;4.47;4.17;;;;;;;3.34;100.00;98588.72;4954104;28;20238;-61
2022/01/23 14:40:57;;;;;;;3.63;3.43;;;;;;;3.31;100.00;98583.69;4960101;28;20642;-62
2022/01/23 14:43:33;;;;;;;3.27;3.07;;;;;;;3.01;100.00;98585.59;4954694;28;20217;-59
2022/01/23 14:46:04;;;;;;;3.10;2.90;;;;;;;2.81;100.00;98581.69;4956012;28;20216;-62
2022/01/23 14:48:36;;;;;;;2.97;2.70;;;;;;;2.77;100.00;98595.09;4952360;28;20222;-61
2022/01/23 14:51:05;;;;;;;2.60;2.40;;;;;;;2.95;100.00;98593.88;4956058;28;20241;-60